Decoded Metar for LFMY (SALON in FRANCE) (IATA:N/A) | Meteo·Mobile Aviation Weather
aviador You're here:

LFMY Decoded Metar

SALON in FRANCE
Report Time2019-04-20 10:30:00
UTC Time2019-04-20 11:04:49
Flight Rules vfr VFR
Wind120° at 07 kt
W.Decomp.*RWY 16: 5.3 kt HW 4.6 kt LCW
Visibility9999 m
Phenomena:N/A
Clouds:N/A
Expected CloudBase > 6,800 ft AGL from Temp-Dew spread
CeilingNone
Temp23°C (ISA +8)
Dew Point06°C (33% RH)
AAT19.5°C
QNH1023 hPa
Density Alt968 ft
Elevation197 ft
Report Wrong Elevation
Raw Report
METAR LFMY 201030Z AUTO 12007KT 080V200 CAVOK 23/06 Q1023=

Extra information for LFMY:More info

Metar Taf Metar & Taf Last 4 Metars F.Rules Stats Wind Profile Meteogram Temp Stats Airport Information Weather charts Add Link Nearby VenuesMetar ALERT Operation Metar Decoded Social comments